createdAt,value
2023-02-07T00:01:21.176Z,40.37
2023-02-07T00:03:48.129Z,39.90
2023-02-07T00:06:20.818Z,40.50
2023-02-07T00:08:47.728Z,36.50
2023-02-07T00:11:19.253Z,39.67
2023-02-07T00:13:47.913Z,38.23
2023-02-07T00:16:14.704Z,37.97
2023-02-07T00:18:41.572Z,34.90
2023-02-07T00:21:11.086Z,40.00
2023-02-07T00:23:38.343Z,33.90
2023-02-07T00:26:07.387Z,32.17
2023-02-07T00:28:35.068Z,30.87
2023-02-07T00:31:11.044Z,30.67
2023-02-07T00:33:39.667Z,22.03
2023-02-07T00:36:09.024Z,28.83
2023-02-07T00:38:36.018Z,24.10
2023-02-07T00:41:02.855Z,31.53
2023-02-07T00:43:30.432Z,21.97
2023-02-07T00:46:03.043Z,27.30
2023-02-07T00:48:31.220Z,28.53
2023-02-07T00:50:58.509Z,26.63
2023-02-07T00:53:26.490Z,30.40
2023-02-07T00:55:53.565Z,31.77
2023-02-07T00:58:20.806Z,24.00
2023-02-07T01:00:48.025Z,29.67
2023-02-07T01:03:15.053Z,28.40
2023-02-07T01:05:42.219Z,26.30
2023-02-07T01:08:09.075Z,23.07
2023-02-07T01:10:39.310Z,19.80
2023-02-07T01:13:06.110Z,24.00
2023-02-07T01:15:38.159Z,23.17
2023-02-07T01:18:06.646Z,23.07
2023-02-07T01:20:34.130Z,24.90
2023-02-07T01:23:00.894Z,28.00
2023-02-07T01:25:27.704Z,21.83
2023-02-07T01:27:54.541Z,24.53
2023-02-07T01:30:21.296Z,20.00
2023-02-07T01:32:48.271Z,23.23
2023-02-07T01:35:15.133Z,23.20
2023-02-07T01:37:41.828Z,26.20
2023-02-07T01:40:09.443Z,31.37
2023-02-07T01:42:36.096Z,26.67
2023-02-07T01:45:28.478Z,26.87
2023-02-07T01:47:59.770Z,25.53
2023-02-07T01:50:26.619Z,26.90
2023-02-07T01:52:54.493Z,28.17
2023-02-07T01:55:28.216Z,23.63
2023-02-07T01:57:55.228Z,29.75
2023-02-07T02:00:22.208Z,24.50
2023-02-07T02:02:49.224Z,24.07
2023-02-07T02:05:17.716Z,23.77
2023-02-07T02:07:44.479Z,24.40
2023-02-07T02:10:17.101Z,24.77
2023-02-07T02:13:07.180Z,25.73
2023-02-07T02:15:44.698Z,23.83
2023-02-07T02:18:38.449Z,23.20
2023-02-07T02:21:24.598Z,27.48
2023-02-07T02:24:25.543Z,25.13
2023-02-07T02:27:17.313Z,25.60
2023-02-07T02:29:49.862Z,25.43
2023-02-07T02:32:38.148Z,23.97
2023-02-07T02:35:21.191Z,20.27
2023-02-07T02:38:17.745Z,25.10
2023-02-07T02:40:59.747Z,25.07
2023-02-07T02:43:36.506Z,25.60
2023-02-07T02:46:10.665Z,23.17
2023-02-07T02:48:37.899Z,23.97
2023-02-07T02:51:04.987Z,24.13
2023-02-07T02:53:31.859Z,23.27
2023-02-07T02:56:19.313Z,23.03
2023-02-07T02:59:02.615Z,27.23
2023-02-07T03:01:54.449Z,25.90
2023-02-07T03:04:43.079Z,21.00
2023-02-07T03:07:21.870Z,20.70
2023-02-07T03:10:13.814Z,16.37
2023-02-07T03:12:51.084Z,19.50
2023-02-07T03:15:23.466Z,17.30
2023-02-07T03:18:29.221Z,18.50
2023-02-07T03:21:10.440Z,17.70
2023-02-07T03:23:39.159Z,18.30
2023-02-07T03:26:07.775Z,17.57
2023-02-07T03:28:36.554Z,20.80
2023-02-07T03:31:06.905Z,19.30
2023-02-07T03:33:34.463Z,22.50
2023-02-07T03:36:11.811Z,21.07
2023-02-07T03:38:38.909Z,21.33
2023-02-07T03:41:21.048Z,26.73
2023-02-07T03:43:49.225Z,22.83
2023-02-07T03:46:15.913Z,24.33
2023-02-07T03:48:42.709Z,21.70
2023-02-07T03:51:09.359Z,23.73
2023-02-07T03:53:36.162Z,24.57
2023-02-07T03:56:02.885Z,22.63
2023-02-07T03:58:29.562Z,21.20
2023-02-07T04:00:57.189Z,22.57
2023-02-07T04:03:25.169Z,22.47
2023-02-07T04:05:52.208Z,23.17
2023-02-07T04:08:18.881Z,20.17
2023-02-07T04:10:45.551Z,22.87
2023-02-07T04:13:12.235Z,22.17
2023-02-07T04:15:39.392Z,27.57
2023-02-07T04:18:06.246Z,22.40
2023-02-07T04:20:33.076Z,22.27
2023-02-07T04:22:59.812Z,24.13
2023-02-07T04:25:26.451Z,25.30
2023-02-07T04:27:53.190Z,18.63
2023-02-07T04:30:20.162Z,20.97
2023-02-07T04:32:46.852Z,18.10
2023-02-07T04:35:13.503Z,19.63
2023-02-07T04:37:40.841Z,21.83
2023-02-07T04:40:08.335Z,19.47
2023-02-07T04:42:35.124Z,19.10
2023-02-07T04:45:01.941Z,20.60
2023-02-07T04:47:28.768Z,21.37
2023-02-07T04:49:55.420Z,19.37
2023-02-07T04:52:22.158Z,24.73
2023-02-07T04:54:48.920Z,21.10
2023-02-07T04:57:16.272Z,22.23
2023-02-07T04:59:43.058Z,21.13
2023-02-07T05:02:09.680Z,23.57
2023-02-07T05:04:36.441Z,24.03
2023-02-07T05:07:03.147Z,21.67
2023-02-07T05:09:30.769Z,19.53
2023-02-07T05:11:57.416Z,21.00
2023-02-07T05:14:24.152Z,17.50
2023-02-07T05:16:50.928Z,19.33
2023-02-07T05:19:17.676Z,18.33
2023-02-07T05:21:44.339Z,18.17
2023-02-07T05:24:11.077Z,17.00
2023-02-07T05:26:40.266Z,19.53
2023-02-07T05:29:07.184Z,19.40
2023-02-07T05:31:52.481Z,17.20
2023-02-07T05:34:19.316Z,16.97
2023-02-07T05:36:46.092Z,18.83
2023-02-07T05:39:12.789Z,17.43
2023-02-07T05:41:39.562Z,19.17
2023-02-07T05:44:07.234Z,14.57
2023-02-07T05:46:34.321Z,20.40
2023-02-07T05:49:01.563Z,21.40
2023-02-07T05:51:28.460Z,23.33
2023-02-07T05:53:55.364Z,22.13
2023-02-07T05:56:22.639Z,24.50
2023-02-07T05:58:49.295Z,18.23
2023-02-07T06:01:15.961Z,20.63
2023-02-07T06:03:42.758Z,23.17
2023-02-07T06:06:09.484Z,17.17
2023-02-07T06:08:36.377Z,20.10
2023-02-07T06:11:03.103Z,19.23
2023-02-07T06:13:29.793Z,19.27
2023-02-07T06:15:56.745Z,18.87
2023-02-07T06:18:24.755Z,21.63
2023-02-07T06:20:53.000Z,26.37
2023-02-07T06:23:23.057Z,20.83
2023-02-07T06:25:49.711Z,21.10
2023-02-07T06:28:16.611Z,22.87
2023-02-07T06:30:43.361Z,20.70
2023-02-07T06:33:10.178Z,19.70
2023-02-07T06:35:37.203Z,22.37
2023-02-07T06:38:04.131Z,24.40
2023-02-07T06:40:30.833Z,17.30
2023-02-07T06:42:57.564Z,19.27
2023-02-07T06:45:24.251Z,18.17
2023-02-07T06:47:51.050Z,17.53
2023-02-07T06:50:17.820Z,17.67
2023-02-07T06:52:44.582Z,16.20
2023-02-07T06:55:11.389Z,19.63
2023-02-07T06:57:38.777Z,23.77
2023-02-07T07:00:07.328Z,19.40
2023-02-07T07:02:34.177Z,21.33
2023-02-07T07:05:01.396Z,21.77
2023-02-07T07:07:28.166Z,24.90
2023-02-07T07:09:54.803Z,20.90
2023-02-07T07:12:21.605Z,19.97
2023-02-07T07:14:48.250Z,19.37
2023-02-07T07:17:15.389Z,22.50
2023-02-07T07:19:42.044Z,28.00
2023-02-07T07:22:08.822Z,22.10
2023-02-07T07:24:35.508Z,25.77
2023-02-07T07:27:02.299Z,27.73
2023-02-07T07:29:28.976Z,26.37
2023-02-07T07:31:55.782Z,29.47
2023-02-07T07:34:22.509Z,31.23
2023-02-07T07:36:49.228Z,34.43
2023-02-07T07:39:17.717Z,33.57
2023-02-07T07:41:45.179Z,30.27
2023-02-07T07:44:11.988Z,32.23
2023-02-07T07:46:38.829Z,31.33
2023-02-07T07:49:05.558Z,32.50
2023-02-07T07:51:33.239Z,40.33
2023-02-07T07:54:02.635Z,36.03
2023-02-07T07:56:29.506Z,29.13
2023-02-07T07:58:56.585Z,30.27
2023-02-07T08:01:23.437Z,30.20
2023-02-07T08:03:50.189Z,28.37
2023-02-07T08:06:16.954Z,33.23
2023-02-07T08:08:43.769Z,34.77
2023-02-07T08:11:10.881Z,36.43
2023-02-07T08:13:39.969Z,29.47
2023-02-07T08:16:08.627Z,27.50
2023-02-07T08:18:35.681Z,28.00
2023-02-07T08:21:02.563Z,35.33
2023-02-07T08:23:29.506Z,35.33
2023-02-07T08:25:56.489Z,35.47
2023-02-07T08:28:23.531Z,35.03
2023-02-07T08:30:50.357Z,31.30
2023-02-07T08:33:17.533Z,38.97
2023-02-07T08:35:44.796Z,38.97
2023-02-07T08:38:12.683Z,36.83
2023-02-07T08:40:40.083Z,38.13
2023-02-07T08:43:12.151Z,35.23
2023-02-07T08:45:46.646Z,37.57
2023-02-07T08:48:14.883Z,37.77
2023-02-07T08:50:41.806Z,36.70
2023-02-07T08:53:08.617Z,34.83
2023-02-07T08:55:35.298Z,40.13
2023-02-07T08:58:02.075Z,35.83
2023-02-07T09:00:29.508Z,35.97
2023-02-07T09:02:56.202Z,36.73
2023-02-07T09:05:22.946Z,41.40
2023-02-07T09:07:49.788Z,36.53
2023-02-07T09:10:16.608Z,42.63
2023-02-07T09:12:43.332Z,39.93
2023-02-07T09:15:10.641Z,40.67
2023-02-07T09:17:37.552Z,37.90
2023-02-07T09:20:04.358Z,35.67
2023-02-07T09:22:32.068Z,35.23
2023-02-07T09:24:59.379Z,36.20
2023-02-07T09:27:26.174Z,38.17
2023-02-07T09:29:53.320Z,39.70
2023-02-07T09:32:19.988Z,37.37
2023-02-07T09:34:46.768Z,34.23
2023-02-07T09:37:14.583Z,38.27
2023-02-07T09:39:43.486Z,39.97
2023-02-07T09:42:33.762Z,36.57
2023-02-07T09:45:22.047Z,36.00
2023-02-07T09:47:52.792Z,36.17
2023-02-07T09:50:28.703Z,31.73
2023-02-07T09:53:11.154Z,35.90
2023-02-07T09:55:56.427Z,34.00
2023-02-07T09:58:40.960Z,34.83
2023-02-07T10:01:25.078Z,34.07
2023-02-07T10:04:20.925Z,30.85
2023-02-07T10:06:52.504Z,40.80
2023-02-07T10:09:24.000Z,32.17
2023-02-07T10:12:12.304Z,32.53
2023-02-07T10:14:41.754Z,32.67
2023-02-07T10:17:16.476Z,27.83
2023-02-07T10:19:55.093Z,29.87
2023-02-07T10:22:30.899Z,29.00
2023-02-07T10:25:27.261Z,30.47
2023-02-07T10:28:35.119Z,28.37
2023-02-07T10:31:11.935Z,27.93
2023-02-07T10:33:43.582Z,27.27
2023-02-07T10:36:15.405Z,26.93
2023-02-07T10:39:09.346Z,33.60
2023-02-07T10:41:43.521Z,31.85
2023-02-07T10:44:18.815Z,26.63
2023-02-07T10:46:50.278Z,31.05
2023-02-07T10:49:26.243Z,24.90
2023-02-07T10:51:57.095Z,26.02
2023-02-07T10:54:24.881Z,25.90
2023-02-07T10:57:02.949Z,29.92
2023-02-07T10:59:47.486Z,26.58
2023-02-07T11:05:05.837Z,25.73
2023-02-07T11:07:46.008Z,21.48
2023-02-07T11:10:26.579Z,22.40
2023-02-07T11:12:58.992Z,22.00
2023-02-07T11:15:47.809Z,22.88
2023-02-07T11:18:46.030Z,21.40
2023-02-07T11:21:12.646Z,18.13
2023-02-07T11:23:44.751Z,19.20
2023-02-07T11:26:11.523Z,18.48
2023-02-07T11:28:38.275Z,17.20
2023-02-07T11:31:14.618Z,20.92
2023-02-07T11:33:42.275Z,22.25
2023-02-07T11:36:18.862Z,24.65
2023-02-07T11:39:00.026Z,18.58
2023-02-07T11:41:29.680Z,19.67
2023-02-07T11:44:02.167Z,30.98
2023-02-07T11:46:40.621Z,16.83
2023-02-07T11:49:21.051Z,24.98
2023-02-07T11:51:56.393Z,16.00
2023-02-07T11:54:23.755Z,24.73
2023-02-07T11:56:55.570Z,16.85
2023-02-07T11:59:24.778Z,24.80
2023-02-07T12:02:13.608Z,27.30
2023-02-07T12:04:41.269Z,18.98
2023-02-07T12:07:32.303Z,16.23
2023-02-07T12:10:00.691Z,18.80
2023-02-07T12:12:42.881Z,21.80
2023-02-07T12:15:15.022Z,19.50
2023-02-07T12:17:53.196Z,18.02
2023-02-07T12:20:33.331Z,21.38
2023-02-07T12:23:40.796Z,20.38
2023-02-07T12:26:22.114Z,17.40
2023-02-07T12:29:12.311Z,20.35
2023-02-07T12:31:55.623Z,26.73
2023-02-07T12:34:41.731Z,28.35
2023-02-07T12:37:39.172Z,27.40
2023-02-07T12:40:26.901Z,27.98
2023-02-07T12:43:14.822Z,22.48
2023-02-07T12:46:03.017Z,26.38
2023-02-07T12:48:48.431Z,21.10
2023-02-07T12:51:37.092Z,20.08
2023-02-07T12:54:25.712Z,20.65
2023-02-07T12:57:04.523Z,21.42
2023-02-07T12:59:55.832Z,22.33
2023-02-07T13:02:39.037Z,21.90
2023-02-07T13:05:30.362Z,23.63
2023-02-07T13:08:24.270Z,19.55
2023-02-07T13:11:14.544Z,26.33
2023-02-07T13:13:41.171Z,24.73
2023-02-07T13:16:18.210Z,20.05
2023-02-07T13:18:57.237Z,21.33
2023-02-07T13:21:32.770Z,28.23
2023-02-07T13:24:02.596Z,26.95
2023-02-07T13:26:31.601Z,21.70
2023-02-07T13:29:06.431Z,23.83
2023-02-07T13:31:50.482Z,20.55
2023-02-07T13:34:22.628Z,20.55
2023-02-07T13:36:51.556Z,22.17
2023-02-07T13:39:37.150Z,24.95
2023-02-07T13:42:16.846Z,25.55
2023-02-07T13:45:03.768Z,22.52
2023-02-07T13:47:43.586Z,21.45
2023-02-07T13:50:29.097Z,21.83
2023-02-07T13:52:59.107Z,20.63
2023-02-07T13:55:33.687Z,24.77
2023-02-07T13:58:20.008Z,20.40
2023-02-07T14:00:58.470Z,27.02
2023-02-07T14:03:31.260Z,22.38
2023-02-07T14:06:16.948Z,20.73
2023-02-07T14:08:44.715Z,35.30
2023-02-07T14:11:43.913Z,21.92
2023-02-07T14:14:30.849Z,23.23
2023-02-07T14:17:03.409Z,18.77
2023-02-07T14:19:45.439Z,17.08
2023-02-07T14:22:19.990Z,20.23
2023-02-07T14:24:58.642Z,19.83
2023-02-07T14:27:30.170Z,18.38
2023-02-07T14:30:14.534Z,20.13
2023-02-07T14:33:02.675Z,25.20
2023-02-07T14:35:38.455Z,19.65
2023-02-07T14:38:05.154Z,18.55
2023-02-07T14:40:43.836Z,18.20
2023-02-07T14:43:13.300Z,20.98
2023-02-07T14:46:00.609Z,19.35
2023-02-07T14:48:51.165Z,27.23
2023-02-07T14:51:30.189Z,20.42
2023-02-07T14:54:27.299Z,16.25
2023-02-07T14:57:19.372Z,19.33
2023-02-07T15:00:04.823Z,21.73
2023-02-07T15:02:36.462Z,34.10
2023-02-07T15:05:26.613Z,15.13
2023-02-07T15:08:07.670Z,18.20
2023-02-07T15:10:35.983Z,22.33
2023-02-07T15:13:05.715Z,18.80
2023-02-07T15:16:03.327Z,20.30
2023-02-07T15:18:34.603Z,19.30
2023-02-07T15:21:01.739Z,18.58
2023-02-07T15:23:30.644Z,15.38
2023-02-07T15:26:02.020Z,21.40
2023-02-07T15:28:31.817Z,21.23
2023-02-07T15:31:09.722Z,20.27
2023-02-07T15:33:46.772Z,18.85
2023-02-07T15:36:25.768Z,16.83
2023-02-07T15:38:53.282Z,21.83
2023-02-07T15:41:20.008Z,20.65
2023-02-07T15:44:06.453Z,18.13
2023-02-07T15:46:49.035Z,16.52
2023-02-07T15:49:37.102Z,24.23
2023-02-07T15:52:41.445Z,36.15
2023-02-07T15:55:34.396Z,20.95
2023-02-07T15:58:02.158Z,18.60
2023-02-07T16:00:40.397Z,21.45
2023-02-07T16:03:19.683Z,21.10
2023-02-07T16:05:46.503Z,15.27
2023-02-07T16:08:40.573Z,19.25
2023-02-07T16:11:19.783Z,20.15
2023-02-07T16:14:08.356Z,30.27
2023-02-07T16:16:35.028Z,23.17
2023-02-07T16:19:08.982Z,35.97
2023-02-07T16:21:37.367Z,32.47
2023-02-07T16:24:20.650Z,37.72
2023-02-07T16:26:49.180Z,34.38
2023-02-07T16:29:18.040Z,31.45
2023-02-07T16:31:45.261Z,29.48
2023-02-07T16:34:14.110Z,53.08
2023-02-07T16:36:41.046Z,35.78
2023-02-07T16:39:08.407Z,27.33
2023-02-07T16:41:41.370Z,19.73
2023-02-07T16:44:23.432Z,25.30
2023-02-07T16:46:50.664Z,29.85
2023-02-07T16:49:22.777Z,24.67
2023-02-07T16:51:49.887Z,26.92
2023-02-07T16:54:16.912Z,24.13
2023-02-07T16:56:50.307Z,25.05
2023-02-07T16:59:20.366Z,24.23
2023-02-07T17:01:48.072Z,29.25
2023-02-07T17:04:15.476Z,37.30
2023-02-07T17:06:44.206Z,30.75
2023-02-07T17:09:18.219Z,30.58
2023-02-07T17:11:45.106Z,27.17
2023-02-07T17:14:11.888Z,26.63
2023-02-07T17:16:38.763Z,26.65
2023-02-07T17:19:23.850Z,23.15
2023-02-07T17:21:52.412Z,26.30
2023-02-07T17:24:19.751Z,26.45
2023-02-07T17:26:49.655Z,19.65
2023-02-07T17:29:17.262Z,22.80
2023-02-07T17:31:45.094Z,31.70
2023-02-07T17:34:12.159Z,28.55
2023-02-07T17:36:43.177Z,22.05
2023-02-07T17:39:14.425Z,27.65
2023-02-07T17:41:41.185Z,26.02
2023-02-07T17:44:08.485Z,34.17
2023-02-07T17:46:35.315Z,69.22
2023-02-07T17:49:02.348Z,95.63
2023-02-07T17:51:29.458Z,79.38
2023-02-07T17:53:56.957Z,45.53
2023-02-07T17:56:29.096Z,34.58
2023-02-07T17:58:58.836Z,24.80
2023-02-07T18:01:25.556Z,28.92
2023-02-07T18:03:53.969Z,26.70
2023-02-07T18:06:23.544Z,25.27
2023-02-07T18:08:50.595Z,25.40
2023-02-07T18:11:17.970Z,21.98
2023-02-07T18:13:47.148Z,24.13
2023-02-07T18:16:16.170Z,20.42
2023-02-07T18:18:42.946Z,25.95
2023-02-07T18:21:11.997Z,27.35
2023-02-07T18:23:39.528Z,21.05
2023-02-07T18:26:06.305Z,25.45
2023-02-07T18:28:33.063Z,20.67
2023-02-07T18:30:59.861Z,24.60
2023-02-07T18:33:27.474Z,19.80
2023-02-07T18:35:57.976Z,22.55
2023-02-07T18:38:24.842Z,21.73
2023-02-07T18:40:51.690Z,24.38
2023-02-07T18:43:18.335Z,19.38
2023-02-07T18:45:45.096Z,18.77
2023-02-07T18:48:11.772Z,19.45
2023-02-07T18:50:43.579Z,18.00
2023-02-07T18:53:10.903Z,18.10
2023-02-07T18:55:37.663Z,19.08
2023-02-07T18:58:04.502Z,18.63
2023-02-07T19:00:31.437Z,20.33
2023-02-07T19:02:58.208Z,20.77
2023-02-07T19:05:24.923Z,23.13
2023-02-07T19:07:53.587Z,24.13
2023-02-07T19:10:20.239Z,23.23
2023-02-07T19:12:46.985Z,19.98
2023-02-07T19:15:13.658Z,21.90
2023-02-07T19:17:40.371Z,25.40
2023-02-07T19:20:07.633Z,26.58
2023-02-07T19:22:36.149Z,28.88
2023-02-07T19:25:04.917Z,21.47
2023-02-07T19:27:32.929Z,21.38
2023-02-07T19:29:59.671Z,22.95
2023-02-07T19:32:26.323Z,25.15
2023-02-07T19:34:53.174Z,22.83
2023-02-07T19:37:19.799Z,21.63
2023-02-07T19:39:46.702Z,23.15
2023-02-07T19:42:13.391Z,18.90
2023-02-07T19:44:40.166Z,21.37
2023-02-07T19:47:06.826Z,23.80
2023-02-07T19:49:33.587Z,22.73
2023-02-07T19:52:00.308Z,19.90
2023-02-07T19:54:27.076Z,27.15
2023-02-07T19:56:53.729Z,22.00
2023-02-07T19:59:20.568Z,35.57
2023-02-07T20:01:47.333Z,31.63
2023-02-07T20:04:14.060Z,26.35
2023-02-07T20:06:40.802Z,26.57
2023-02-07T20:09:08.216Z,23.97
2023-02-07T20:11:35.541Z,26.20
2023-02-07T20:14:03.784Z,27.23
2023-02-07T20:16:33.988Z,25.53
2023-02-07T20:19:01.749Z,24.43
2023-02-07T20:21:30.579Z,27.20
2023-02-07T20:23:57.925Z,23.90
2023-02-07T20:26:31.751Z,25.80
2023-02-07T20:29:07.072Z,25.70
2023-02-07T20:31:33.920Z,22.07
2023-02-07T20:34:02.041Z,23.63
2023-02-07T20:36:30.376Z,21.53
2023-02-07T20:38:58.586Z,24.20
2023-02-07T20:41:30.252Z,23.37
2023-02-07T20:44:09.134Z,25.00
2023-02-07T20:46:36.868Z,21.97
2023-02-07T20:49:06.737Z,18.67
2023-02-07T20:51:34.161Z,19.63
2023-02-07T20:54:02.534Z,18.23
2023-02-07T20:56:29.504Z,16.73
2023-02-07T20:58:57.951Z,20.53
2023-02-07T21:01:29.137Z,21.03
2023-02-07T21:03:58.525Z,21.83
2023-02-07T21:06:26.079Z,19.97
2023-02-07T21:09:00.114Z,17.47
2023-02-07T21:11:37.506Z,22.53
2023-02-07T21:14:06.830Z,17.60
2023-02-07T21:16:33.794Z,24.47
2023-02-07T21:19:00.783Z,25.23
2023-02-07T21:21:28.001Z,23.80
2023-02-07T21:23:54.758Z,24.53
2023-02-07T21:26:21.553Z,22.17
2023-02-07T21:28:48.336Z,24.37
2023-02-07T21:31:17.674Z,22.47
2023-02-07T21:33:45.175Z,25.80
2023-02-07T21:36:17.724Z,24.27
2023-02-07T21:38:47.116Z,25.17
2023-02-07T21:41:15.528Z,29.47
2023-02-07T21:43:42.356Z,31.63
2023-02-07T21:46:12.028Z,24.57
2023-02-07T21:48:39.725Z,21.17
2023-02-07T21:51:10.241Z,22.87
2023-02-07T21:53:38.111Z,24.67
2023-02-07T21:56:11.130Z,24.43
2023-02-07T21:58:38.159Z,16.47
2023-02-07T22:01:18.406Z,27.07
2023-02-07T22:03:47.522Z,21.60
2023-02-07T22:06:16.133Z,26.17
2023-02-07T22:08:48.050Z,23.30
2023-02-07T22:11:15.223Z,23.57
2023-02-07T22:13:43.302Z,23.53
2023-02-07T22:16:12.697Z,22.07
2023-02-07T22:18:40.073Z,20.43
2023-02-07T22:21:11.465Z,19.53
2023-02-07T22:23:38.472Z,23.57
2023-02-07T22:26:06.483Z,23.03
2023-02-07T22:28:33.620Z,22.10
2023-02-07T22:31:01.069Z,25.23
2023-02-07T22:33:27.960Z,27.60
2023-02-07T22:35:54.666Z,39.03
2023-02-07T22:38:21.302Z,29.47
2023-02-07T22:40:48.027Z,31.93
2023-02-07T22:43:16.310Z,32.37
2023-02-07T22:45:45.988Z,27.97
2023-02-07T22:48:14.723Z,29.77
2023-02-07T22:50:42.579Z,26.60
2023-02-07T22:53:11.679Z,23.07
2023-02-07T22:55:40.003Z,26.47
2023-02-07T22:58:07.489Z,26.30
2023-02-07T23:00:34.596Z,24.30
2023-02-07T23:03:01.501Z,26.63
2023-02-07T23:05:28.605Z,28.93
2023-02-07T23:07:55.464Z,26.00
2023-02-07T23:10:22.168Z,26.13
2023-02-07T23:12:48.808Z,24.00
2023-02-07T23:15:15.619Z,27.30
2023-02-07T23:17:42.292Z,24.07
2023-02-07T23:20:09.371Z,31.60
2023-02-07T23:22:38.242Z,31.87
2023-02-07T23:25:06.932Z,28.70
2023-02-07T23:27:33.696Z,29.40
2023-02-07T23:30:00.530Z,30.80
2023-02-07T23:32:27.220Z,26.40
2023-02-07T23:34:53.965Z,27.37
2023-02-07T23:37:22.324Z,25.07
2023-02-07T23:39:49.247Z,26.63
2023-02-07T23:42:15.881Z,25.83
2023-02-07T23:44:42.530Z,26.23
2023-02-07T23:47:09.442Z,27.57
2023-02-07T23:49:36.101Z,25.77
2023-02-07T23:52:02.926Z,24.20
2023-02-07T23:54:29.650Z,29.13
2023-02-07T23:56:56.309Z,30.90
2023-02-07T23:59:23.107Z,33.73
